createdAt,value
2022-10-28T05:11:51.683Z,0.373
2022-10-28T05:17:59.228Z,0.747
2022-10-28T05:20:37.365Z,1.494
2022-10-28T05:23:15.542Z,2.614
2022-10-28T05:29:53.451Z,8.217
2022-10-28T05:32:41.844Z,13.819
2022-10-28T05:35:19.981Z,22.783
2022-10-28T05:37:53.060Z,35.482
2022-10-28T05:40:51.558Z,57.892
2022-10-28T05:43:29.833Z,84.037
2022-10-28T05:46:02.900Z,115.785
2022-10-28T05:48:36.011Z,153.882
2022-10-28T05:51:14.200Z,197.208
2022-10-28T05:55:08.753Z,301.788
2022-10-28T05:57:52.489Z,397.404
2022-10-28T06:00:45.518Z,516.924
2022-10-28T06:03:27.096Z,624.492
2022-10-28T06:05:56.949Z,723.096
2022-10-28T06:08:55.580Z,836.64
2022-10-28T06:11:32.305Z,950.184
2022-10-28T06:15:11.668Z,1117.512
2022-10-28T06:17:49.845Z,1225.08
2022-10-28T06:20:53.564Z,1344.6
2022-10-28T06:24:32.921Z,1499.976
2022-10-28T06:27:11.136Z,1613.52
2022-10-28T06:29:59.719Z,1780.848
2022-10-28T06:32:53.029Z,1960.128
2022-10-28T06:35:26.134Z,2151.36
2022-10-28T06:38:09.692Z,2426.256
2022-10-28T06:40:42.530Z,2701.152
2022-10-28T06:43:25.733Z,3059.712
2022-10-28T06:46:14.110Z,3394.368
2022-10-28T06:48:53.836Z,4039.776
2022-10-28T06:51:32.027Z,4924.224
2022-10-28T06:54:05.136Z,5760.864
2022-10-28T06:56:48.356Z,6549.696
2022-10-28T06:59:21.503Z,6979.968
2022-10-28T07:01:59.867Z,7027.776
2022-10-28T07:04:37.991Z,7553.664
2022-10-28T07:07:11.255Z,8079.552
2022-10-28T07:09:44.136Z,8318.592
2022-10-28T07:12:32.485Z,7792.704
2022-10-28T07:15:15.761Z,7505.856
2022-10-28T07:17:48.891Z,6454.08
2022-10-28T07:20:37.226Z,5856.48
2022-10-28T07:23:35.769Z,5904.288
2022-10-28T07:26:14.086Z,7792.704
2022-10-28T07:28:47.186Z,7697.088
2022-10-28T07:31:25.445Z,9035.712
2022-10-28T07:34:25.975Z,8127.36
2022-10-28T07:36:57.165Z,10661.184
2022-10-28T07:40:00.879Z,11378.304
2022-10-28T07:42:33.978Z,11521.728
2022-10-28T07:45:27.490Z,12716.928
2022-10-28T07:48:00.646Z,11282.688
2022-10-28T07:50:54.057Z,12430.08
2022-10-28T07:53:32.168Z,10087.488
2022-10-28T07:56:05.294Z,11856.384
2022-10-28T07:58:58.782Z,9896.256
2022-10-28T08:01:31.936Z,8270.784
2022-10-28T08:04:25.371Z,7792.704
2022-10-28T08:06:58.507Z,7697.088
2022-10-28T08:10:02.198Z,8653.248
2022-10-28T08:12:35.219Z,9179.136
2022-10-28T08:15:08.345Z,10852.416
2022-10-28T08:17:46.559Z,10661.184
2022-10-28T08:20:24.666Z,15776.64
2022-10-28T08:23:13.125Z,12430.08
2022-10-28T08:25:51.356Z,10422.144
2022-10-28T08:28:44.859Z,14629.248
2022-10-28T08:31:18.004Z,15011.712
2022-10-28T08:33:51.167Z,17115.264
2022-10-28T08:36:44.655Z,17115.264
2022-10-28T08:39:39.555Z,18453.888
2022-10-28T08:42:12.706Z,19888.128
2022-10-28T08:45:06.217Z,20270.592
2022-10-28T08:47:39.226Z,14342.4
2022-10-28T08:50:40.766Z,26390.016
2022-10-28T08:53:13.911Z,26963.712
2022-10-28T08:56:12.518Z,26963.712
2022-10-28T08:59:11.278Z,28302.336
2022-10-28T09:01:44.605Z,30214.656
2022-10-28T09:04:32.862Z,32509.44
2022-10-28T09:07:37.441Z,33274.368
2022-10-28T09:10:15.714Z,34230.528
2022-10-28T09:12:54.459Z,26390.016
2022-10-28T09:15:33.306Z,29449.728
2022-10-28T09:18:16.204Z,33848.064
2022-10-28T09:20:49.396Z,34039.296
2022-10-28T09:23:32.393Z,33656.832
2022-10-28T09:26:20.851Z,35760.384
2022-10-28T09:29:11.285Z,28876.032
2022-10-28T09:32:05.848Z,27346.176
2022-10-28T09:34:50.797Z,34421.76
2022-10-28T09:37:34.242Z,33656.832
2022-10-28T09:40:12.440Z,31170.816
2022-10-28T09:43:01.489Z,25242.624
2022-10-28T09:45:35.681Z,24668.928
2022-10-28T09:48:09.127Z,18836.352
2022-10-28T09:50:47.019Z,22278.528
2022-10-28T09:53:36.007Z,25051.392
2022-10-28T09:56:11.232Z,25433.856
2022-10-28T09:59:27.110Z,21322.368
2022-10-28T10:02:05.568Z,24382.08
2022-10-28T10:04:48.841Z,20653.056
2022-10-28T10:07:34.214Z,20270.592
2022-10-28T10:10:12.562Z,13673.088
2022-10-28T10:13:01.010Z,13290.624
2022-10-28T10:15:34.084Z,13099.392
2022-10-28T10:18:07.283Z,13673.088
2022-10-28T10:20:40.422Z,14151.168
2022-10-28T10:23:13.473Z,14533.632
2022-10-28T10:25:51.694Z,14438.016
2022-10-28T10:28:24.884Z,13768.704
2022-10-28T10:30:57.989Z,12430.08
2022-10-28T10:33:46.414Z,11808.576
2022-10-28T10:36:24.665Z,11999.808
2022-10-28T10:39:18.223Z,12716.928
2022-10-28T10:42:01.558Z,13290.624
2022-10-28T10:45:25.683Z,13386.24
2022-10-28T10:48:14.156Z,13673.088
2022-10-28T10:51:12.809Z,15298.56
2022-10-28T10:54:31.110Z,16828.416
2022-10-28T10:57:39.975Z,15585.408
2022-10-28T11:00:33.525Z,14629.248
2022-10-28T11:03:16.834Z,14246.784
2022-10-28T11:06:23.827Z,14533.632
2022-10-28T11:09:19.942Z,14916.096
2022-10-28T11:13:45.973Z,14629.248
2022-10-28T11:16:48.289Z,14820.48
2022-10-28T11:19:21.433Z,15489.792
2022-10-28T11:21:54.531Z,16828.416
2022-10-28T11:24:48.038Z,19792.512
2022-10-28T11:27:20.293Z,29640.96
2022-10-28T11:30:00.489Z,37481.472
2022-10-28T11:32:54.721Z,26772.48
2022-10-28T11:35:26.582Z,26772.48
2022-10-28T11:38:06.627Z,36716.544
2022-10-28T11:40:49.940Z,34612.992
2022-10-28T11:43:33.303Z,34039.296
2022-10-28T11:46:06.328Z,31744.512
2022-10-28T11:48:39.423Z,32891.904
2022-10-28T11:51:22.848Z,30405.888
2022-10-28T11:53:55.907Z,34612.992
2022-10-28T11:56:44.320Z,32509.44
2022-10-28T11:59:17.495Z,33274.368
2022-10-28T12:02:31.435Z,32509.44
2022-10-28T12:05:04.512Z,33083.136
2022-10-28T12:07:42.753Z,31362.048
2022-10-28T12:10:15.905Z,29067.264
2022-10-28T12:12:50.499Z,29449.728
2022-10-28T12:15:29.982Z,30023.424
2022-10-28T12:18:00.026Z,27728.64
2022-10-28T12:20:40.806Z,23425.92
2022-10-28T12:23:19.746Z,24668.928
2022-10-28T12:25:53.093Z,12716.928
2022-10-28T12:28:35.976Z,13673.088
2022-10-28T12:31:10.141Z,11952
2022-10-28T12:33:48.340Z,7697.088
2022-10-28T12:36:52.009Z,7123.392
2022-10-28T12:39:50.617Z,7410.24
2022-10-28T12:42:28.852Z,8079.552
2022-10-28T12:45:07.097Z,8653.248
2022-10-28T12:47:50.414Z,9226.944
2022-10-28T12:50:43.919Z,9513.792
2022-10-28T12:53:22.193Z,9465.984
2022-10-28T12:56:00.439Z,8270.784
2022-10-28T12:58:33.578Z,11665.152
2022-10-28T13:01:08.493Z,12716.928
2022-10-28T13:03:41.542Z,11808.576
2022-10-28T13:06:22.760Z,11187.072
2022-10-28T13:11:38.411Z,10565.568
2022-10-28T13:14:16.647Z,10326.528
2022-10-28T13:16:51.842Z,13481.856
2022-10-28T13:19:44.389Z,10230.912
2022-10-28T13:25:11.042Z,9752.832
2022-10-28T13:28:04.432Z,9896.256
2022-10-28T13:30:52.902Z,10804.608
2022-10-28T13:34:01.655Z,12621.312
2022-10-28T13:36:34.863Z,13290.624
2022-10-28T13:39:07.932Z,15011.712
2022-10-28T13:41:51.287Z,14438.016
2022-10-28T13:44:30.297Z,14151.168
2022-10-28T13:47:13.557Z,11473.92
2022-10-28T13:50:01.982Z,9896.256
2022-10-28T13:52:35.004Z,9035.712
2022-10-28T13:55:13.192Z,8175.168
2022-10-28T13:57:46.303Z,7744.896
2022-10-28T14:00:24.526Z,7505.856
2022-10-28T14:03:28.233Z,7314.624
2022-10-28T14:06:11.489Z,6979.968
2022-10-28T14:09:18.939Z,6549.696
2022-10-28T14:12:49.476Z,6167.232
2022-10-28T14:15:43.035Z,5976
2022-10-28T14:18:43.371Z,5689.152
2022-10-28T14:21:14.615Z,5450.112
2022-10-28T14:23:47.690Z,5163.264
2022-10-28T14:26:51.412Z,4541.76
2022-10-28T14:29:49.994Z,4087.584
2022-10-28T14:32:28.156Z,3872.448
2022-10-28T14:35:31.887Z,3681.216
2022-10-28T14:38:10.068Z,3418.272
2022-10-28T14:40:58.505Z,3227.04
2022-10-28T14:43:41.784Z,3131.424
2022-10-28T14:46:20.037Z,2952.144
2022-10-28T14:48:58.277Z,2808.72
2022-10-28T14:51:36.367Z,2701.152
2022-10-28T14:54:50.378Z,2581.632
2022-10-28T14:57:38.879Z,2557.728
2022-10-28T15:00:11.993Z,2581.632
2022-10-28T15:02:50.260Z,2653.344
2022-10-28T15:06:09.294Z,2725.056
2022-10-28T15:08:52.584Z,2521.872
2022-10-28T15:11:35.944Z,2378.448
2022-10-28T15:14:14.205Z,2235.024
2022-10-28T15:17:02.693Z,2007.936
2022-10-28T15:19:51.175Z,1756.944
2022-10-28T15:23:20.536Z,1446.192
2022-10-28T15:25:53.479Z,1248.984
2022-10-28T15:28:36.902Z,1069.704
2022-10-28T15:31:15.096Z,950.184
2022-10-28T15:33:48.295Z,848.592
2022-10-28T15:36:26.615Z,738.036
2022-10-28T15:38:59.631Z,615.528
2022-10-28T15:41:43.049Z,498.996
2022-10-28T15:44:16.088Z,421.308
2022-10-28T15:46:54.496Z,352.584
2022-10-28T15:49:32.606Z,283.86
2022-10-28T15:52:31.137Z,209.16
2022-10-28T15:55:04.305Z,161.352
2022-10-28T15:57:37.435Z,124.002
2022-10-28T16:00:36.050Z,88.146
2022-10-28T16:03:09.239Z,63.121
2022-10-28T16:05:47.430Z,42.952
2022-10-28T16:08:25.685Z,27.639
2022-10-28T16:11:03.837Z,16.807
2022-10-28T16:13:42.085Z,10.458
2022-10-28T16:16:30.572Z,6.349
2022-10-28T16:19:49.603Z,3.735
2022-10-28T16:22:48.228Z,1.867
2022-10-28T16:25:41.771Z,1.12
2022-10-28T16:33:51.782Z,0
